Tug Danielle Bouchard — WCX4443 — position and weather

sailwx.info

Track history (hours):
 
Tides and Currents Weather Stations Pressure Air Temp Water Temp Dewpoint Dewpoint Depression Visibility Wind Speed Wind Dir Waves Ship Positions

Tug Danielle Bouchard

Owner: Danielle M. Bouchard, MELVILLE, NY. More information available from US FCC via Universal Licensing System.

Last reported at 2017-Nov-24 20:41 UTC. Time now 2017-Nov-25 00:25 UTC.
Position N 27°41' W 082°35'.

Length 209 m; draft 7.1 m.

Type: Tanker. MMSI: 367006650.

Date/timePositionNaut miles runAvg speedWind from/ knotsBaromVisibWave heightAir tempDewpointWater temp
2017-Nov-24 20:41N 27°41' W 082°35'2 9.1
2017-Nov-24 20:30N 27°42' W 082°33'5 9.3
2017-Nov-24 20:00N 27°46' W 082°31'5 9.3
2017-Nov-24 19:30N 27°49' W 082°27'5 9.7
2017-Nov-24 19:00N 27°54' W 082°26'3 5.1
2017-Nov-24 18:30N 27°56' W 082°27'0 0.6
2017-Nov-24 18:01N 27°56' W 082°27'0 0.0
2017-Nov-24 17:29N 27°56' W 082°27'0 0.0
2017-Nov-24 16:59N 27°56' W 082°27'0 0.0
2017-Nov-24 16:29N 27°56' W 082°27'0 0.0
2017-Nov-24 15:59N 27°56' W 082°27'0 0.0
2017-Nov-24 15:28N 27°56' W 082°27'0 0.0
2017-Nov-24 14:58N 27°56' W 082°27'0 0.0
2017-Nov-24 14:28N 27°56' W 082°27'0 0.0
2017-Nov-24 13:58N 27°56' W 082°27'0 0.0
2017-Nov-24 13:31N 27°56' W 082°27'0 0.0
2017-Nov-24 13:01N 27°56' W 082°27'0 0.0
2017-Nov-24 12:30N 27°56' W 082°27'0 0.0
2017-Nov-24 12:00N 27°56' W 082°27'0 0.0
2017-Nov-24 11:27N 27°56' W 082°27'0 0.0
2017-Nov-24 11:00N 27°56' W 082°27'0 0.0
2017-Nov-24 10:30N 27°56' W 082°27'0 0.0
2017-Nov-24 10:00N 27°56' W 082°27'0 0.0
2017-Nov-24 09:27N 27°56' W 082°27'0 0.0
2017-Nov-24 09:00N 27°56' W 082°27'0 0.0
2017-Nov-24 08:30N 27°56' W 082°27'0 0.0
2017-Nov-24 08:00N 27°56' W 082°27'0 0.0
2017-Nov-24 07:30N 27°56' W 082°27'0 0.0
2017-Nov-24 07:00N 27°56' W 082°27'0 0.0
2017-Nov-24 06:30N 27°56' W 082°27'0 0.0
2017-Nov-24 06:00N 27°56' W 082°27'0 0.0
2017-Nov-24 05:30N 27°56' W 082°27'0 0.0
2017-Nov-24 04:57N 27°56' W 082°27'0 0.0
2017-Nov-24 04:30N 27°56' W 082°27'0 0.0
2017-Nov-24 04:00N 27°56' W 082°27'0 0.0
2017-Nov-24 03:30N 27°56' W 082°27'0 0.0
2017-Nov-24 03:00N 27°56' W 082°27'0 0.0
2017-Nov-24 02:30N 27°56' W 082°27'0 0.0
2017-Nov-24 02:00N 27°56' W 082°27'0 0.0
2017-Nov-24 01:30N 27°56' W 082°27'0 0.0
2017-Nov-24 01:00N 27°56' W 082°27'0 0.0
2017-Nov-24 00:30N 27°56' W 082°27'0 0.0
2017-Nov-24 00:00N 27°56' W 082°27'0 0.0
2017-Nov-23 23:30N 27°56' W 082°27'0 0.0
2017-Nov-23 23:00N 27°56' W 082°27'0 0.0
2017-Nov-23 22:30N 27°56' W 082°27'0 0.0
2017-Nov-23 22:00N 27°56' W 082°27'0 0.0
2017-Nov-23 21:30N 27°56' W 082°27'0 0.0
2017-Nov-23 21:00N 27°56' W 082°27'0 0.0
2017-Nov-23 20:30N 27°56' W 082°27'0 0.0
2017-Nov-23 20:00N 27°56' W 082°27'1 1.3
2017-Nov-23 19:30N 27°56' W 082°27'2 4.3
2017-Nov-23 18:58N 27°54' W 082°25'0 0.0
2017-Nov-23 18:28N 27°54' W 082°25'0 0.0
2017-Nov-23 17:58N 27°54' W 082°25'0 0.0
2017-Nov-23 17:28N 27°54' W 082°25'0 0.0
2017-Nov-23 16:58N 27°54' W 082°25'0 0.0
2017-Nov-23 16:28N 27°54' W 082°25'0 0.0
2017-Nov-23 15:58N 27°54' W 082°25'0 0.0
2017-Nov-23 15:28N 27°54' W 082°25'0 0.0
2017-Nov-23 14:58N 27°54' W 082°25'0 0.0
2017-Nov-23 14:25N 27°54' W 082°25'0 0.0
2017-Nov-23 13:58N 27°54' W 082°25'0 0.0
2017-Nov-23 13:30N 27°54' W 082°25'0 0.0
2017-Nov-23 13:00N 27°54' W 082°25'0 0.0
2017-Nov-23 12:30N 27°54' W 082°25'1 2.4
2017-Nov-23 12:00N 27°54' W 082°26'2 3.9
2017-Nov-23 11:28N 27°56' W 082°27'0 0.0
2017-Nov-23 10:58N 27°56' W 082°27'0 0.0
2017-Nov-23 10:28N 27°56' W 082°27'0 0.0
2017-Nov-23 09:58N 27°56' W 082°27'0 0.0
2017-Nov-23 09:28N 27°56' W 082°27'0 0.0
2017-Nov-23 08:58N 27°56' W 082°27'0 0.0
2017-Nov-23 08:28N 27°56' W 082°27'0 0.0
2017-Nov-23 07:58N 27°56' W 082°27'0 0.0
2017-Nov-23 07:28N 27°56' W 082°27'0 0.0
2017-Nov-23 06:58N 27°56' W 082°27'0 0.0
2017-Nov-23 06:28N 27°56' W 082°27'0 0.0
2017-Nov-23 05:58N 27°56' W 082°27'0 0.0
2017-Nov-23 05:28N 27°56' W 082°27'0 0.0
2017-Nov-23 04:58N 27°56' W 082°27'0 0.0
2017-Nov-23 04:28N 27°56' W 082°27'0 0.0
2017-Nov-23 03:58N 27°56' W 082°27'0 0.0
2017-Nov-23 03:28N 27°56' W 082°27'0 0.0
2017-Nov-23 02:58N 27°56' W 082°27'0 0.0
2017-Nov-23 02:28N 27°56' W 082°27'0 0.0
2017-Nov-23 01:58N 27°56' W 082°27'0 0.0
2017-Nov-23 01:28N 27°56' W 082°27'0 0.0
2017-Nov-23 00:58N 27°56' W 082°27'0 0.0
2017-Nov-23 00:28N 27°56' W 082°27'0 0.0
2017-Nov-22 23:58N 27°56' W 082°27'0 0.0
2017-Nov-22 23:28N 27°56' W 082°27'0 0.0
2017-Nov-22 22:58N 27°56' W 082°27'0 0.0
2017-Nov-22 22:28N 27°56' W 082°27'0 0.0
2017-Nov-22 21:58N 27°56' W 082°27'0 0.0
2017-Nov-22 21:25N 27°56' W 082°27'0 0.0
2017-Nov-22 20:58N 27°56' W 082°27'0 0.0
2017-Nov-22 20:28N 27°56' W 082°27'0 0.0
2017-Nov-22 19:58N 27°56' W 082°27'0 0.0
2017-Nov-22 19:19N 27°56' W 082°27'  
2017-Nov-20 00:29N 27°57' W 082°27'0 0.0
2017-Nov-19 23:59N 27°57' W 082°27'0 0.0
2017-Nov-19 23:29N 27°57' W 082°27'0 0.0
2017-Nov-19 22:59N 27°57' W 082°27'0 0.0
2017-Nov-19 22:29N 27°57' W 082°27'0 0.0
2017-Nov-19 21:59N 27°57' W 082°27'0 0.0
2017-Nov-19 21:29N 27°57' W 082°27'0 0.0
2017-Nov-19 20:59N 27°57' W 082°27'0 0.0
2017-Nov-19 20:29N 27°57' W 082°27'0 0.0
2017-Nov-19 19:59N 27°57' W 082°27'0 0.0
2017-Nov-19 19:29N 27°57' W 082°27'0 0.0
2017-Nov-19 18:59N 27°57' W 082°27'0 0.0
2017-Nov-19 18:29N 27°57' W 082°27'0 0.0
2017-Nov-19 17:59N 27°57' W 082°27'0 0.0
2017-Nov-19 17:29N 27°57' W 082°27'0 0.0
2017-Nov-19 16:59N 27°57' W 082°27'0 0.0
2017-Nov-19 16:29N 27°57' W 082°27'0 0.0
2017-Nov-19 15:59N 27°57' W 082°27'0 0.0
2017-Nov-19 15:29N 27°57' W 082°27'0 0.0
2017-Nov-19 14:59N 27°57' W 082°27'0 0.0
2017-Nov-19 14:29N 27°57' W 082°27'0 0.0
2017-Nov-19 13:59N 27°57' W 082°27'0 0.0
2017-Nov-19 13:29N 27°57' W 082°27'0 0.0
2017-Nov-19 12:59N 27°57' W 082°27'0 0.0
2017-Nov-19 12:29N 27°57' W 082°27'0 0.0
2017-Nov-19 11:59N 27°57' W 082°27'0 0.0
2017-Nov-19 11:29N 27°57' W 082°27'0 0.0
2017-Nov-19 10:59N 27°57' W 082°27'0 0.0
2017-Nov-19 10:29N 27°57' W 082°27'0 0.0
2017-Nov-19 09:59N 27°57' W 082°27'0 0.0
2017-Nov-19 09:29N 27°57' W 082°27'0 0.0
2017-Nov-19 08:59N 27°57' W 082°27'0 0.0
2017-Nov-19 08:29N 27°57' W 082°27'0 0.0
2017-Nov-19 07:58N 27°57' W 082°27'0 0.0
2017-Nov-19 07:28N 27°57' W 082°27'0 0.0
2017-Nov-19 06:58N 27°57' W 082°27'0 0.0
2017-Nov-19 06:28N 27°57' W 082°27'0 0.0
2017-Nov-19 05:58N 27°57' W 082°27'0 0.0
2017-Nov-19 05:28N 27°57' W 082°27'0 0.0
2017-Nov-19 04:58N 27°57' W 082°27'0 0.0
2017-Nov-19 04:28N 27°57' W 082°27'0 0.0
2017-Nov-19 03:58N 27°57' W 082°27'0 0.0
2017-Nov-19 03:28N 27°57' W 082°27'0 0.0
2017-Nov-19 02:58N 27°57' W 082°27'0 0.0
2017-Nov-19 02:28N 27°57' W 082°27'0 0.0
2017-Nov-19 01:55N 27°57' W 082°27'0 0.0
2017-Nov-19 01:28N 27°57' W 082°27'0 0.0
2017-Nov-19 00:58N 27°57' W 082°27'0 0.0
2017-Nov-19 00:28N 27°57' W 082°27'0 0.0
2017-Nov-18 23:58N 27°57' W 082°27'0 0.0
2017-Nov-18 23:28N 27°57' W 082°27'0 0.0
2017-Nov-18 22:58N 27°57' W 082°27'0 0.0
2017-Nov-18 22:28N 27°57' W 082°27'0 0.0
2017-Nov-18 21:58N 27°57' W 082°27'0 0.0
2017-Nov-18 21:28N 27°57' W 082°27'0 0.0
2017-Nov-18 20:58N 27°57' W 082°27'0 0.0
2017-Nov-18 20:28N 27°57' W 082°27'0 0.0
2017-Nov-18 19:58N 27°57' W 082°27'0 0.0
2017-Nov-18 19:28N 27°57' W 082°27'0 0.0
2017-Nov-18 18:58N 27°57' W 082°27'0 0.0
2017-Nov-18 18:28N 27°57' W 082°27'0 0.0
2017-Nov-18 17:58N 27°57' W 082°27'0 0.0
2017-Nov-18 17:28N 27°57' W 082°27'0 0.0
2017-Nov-18 16:58N 27°57' W 082°27'0 0.0
2017-Nov-18 16:28N 27°57' W 082°27'0 0.0
2017-Nov-18 15:58N 27°57' W 082°27'0 0.0
2017-Nov-18 15:28N 27°57' W 082°27'0 0.0
2017-Nov-18 14:58N 27°57' W 082°27'0 0.0
2017-Nov-18 14:28N 27°57' W 082°27'0 0.0
2017-Nov-18 13:58N 27°57' W 082°27'0 0.0
2017-Nov-18 13:28N 27°57' W 082°27'0 0.0
2017-Nov-18 12:58N 27°57' W 082°27'0 0.0
2017-Nov-18 12:28N 27°57' W 082°27'0 0.0
2017-Nov-18 11:58N 27°57' W 082°27'0 0.0
2017-Nov-18 11:28N 27°57' W 082°27'0 0.0
2017-Nov-18 10:58N 27°57' W 082°27'0 0.0
2017-Nov-18 10:28N 27°57' W 082°27'0 0.0
2017-Nov-18 09:58N 27°57' W 082°27'0 0.0
2017-Nov-18 09:25N 27°57' W 082°27'0 0.0
2017-Nov-18 08:58N 27°57' W 082°27'0 0.0
2017-Nov-18 08:28N 27°57' W 082°27'0 0.0
2017-Nov-18 07:58N 27°57' W 082°27'0 0.0
2017-Nov-18 07:28N 27°57' W 082°27'0 0.0
2017-Nov-18 06:58N 27°57' W 082°27'0 0.0
2017-Nov-18 06:28N 27°57' W 082°27'0 0.0
2017-Nov-18 05:58N 27°57' W 082°27'0 0.0
2017-Nov-18 05:28N 27°57' W 082°27'0 0.0
2017-Nov-18 04:58N 27°57' W 082°27'0 0.0
2017-Nov-18 04:28N 27°57' W 082°27'0 0.0
2017-Nov-18 03:58N 27°57' W 082°27'0 0.0
2017-Nov-18 03:28N 27°57' W 082°27'0 0.0
2017-Nov-18 02:58N 27°57' W 082°27'0 0.0
2017-Nov-18 02:28N 27°57' W 082°27'0 0.0
2017-Nov-18 01:58N 27°57' W 082°27'0 0.0
2017-Nov-18 01:28N 27°57' W 082°27'0 0.0
2017-Nov-18 00:58N 27°57' W 082°27'0 0.0
2017-Nov-18 00:28N 27°57' W 082°27'0 0.0
2017-Nov-17 23:58N 27°57' W 082°27'0 0.0
2017-Nov-17 23:28N 27°57' W 082°27'0 0.0
2017-Nov-17 22:58N 27°57' W 082°27'0 0.0
2017-Nov-17 22:28N 27°57' W 082°27'0 0.0
2017-Nov-17 22:01N 27°57' W 082°27'0 0.0
2017-Nov-17 21:31N 27°57' W 082°27'0 0.0
2017-Nov-17 21:00N 27°57' W 082°27'0 0.0
2017-Nov-17 20:30N 27°57' W 082°27'0 0.0
2017-Nov-17 20:00N 27°57' W 082°27'0 0.0
2017-Nov-17 19:30N 27°57' W 082°27'0 0.0
2017-Nov-17 19:00N 27°57' W 082°27'0 0.0
2017-Nov-17 18:30N 27°57' W 082°27'0 0.0
2017-Nov-17 18:00N 27°57' W 082°27'0 0.0
2017-Nov-17 17:29N 27°57' W 082°27'0 0.0
2017-Nov-17 16:59N 27°57' W 082°27'0 0.0
2017-Nov-17 16:30N 27°57' W 082°27'2 4.2
2017-Nov-17 16:01N 27°55' W 082°26'1 1.0
2017-Nov-17 15:30N 27°54' W 082°26'2 3.4
2017-Nov-17 15:00N 27°56' W 082°27'1 2.0
2017-Nov-17 14:30N 27°57' W 082°27'0 0.0
2017-Nov-17 14:00N 27°57' W 082°27'0 0.0
2017-Nov-17 13:30N 27°57' W 082°27'0 0.0
2017-Nov-17 13:00N 27°57' W 082°27'0 0.0
2017-Nov-17 12:30N 27°57' W 082°27'0 0.0
2017-Nov-17 12:00N 27°57' W 082°27'0 0.0
2017-Nov-17 11:30N 27°57' W 082°27'0 0.0
2017-Nov-17 11:00N 27°57' W 082°27'0 0.0
2017-Nov-17 10:30N 27°57' W 082°27'0 0.0
2017-Nov-17 10:00N 27°57' W 082°27'0 0.0
2017-Nov-17 09:30N 27°57' W 082°27'0 0.0
2017-Nov-17 09:00N 27°57' W 082°27'0 0.0
2017-Nov-17 08:30N 27°57' W 082°27'0 0.0
2017-Nov-17 08:00N 27°57' W 082°27'0 0.0
2017-Nov-17 07:30N 27°57' W 082°27'0 0.0
2017-Nov-17 07:00N 27°57' W 082°27'0 0.0
2017-Nov-17 06:30N 27°57' W 082°27'0 0.0
2017-Nov-17 06:00N 27°57' W 082°27'0 0.0
2017-Nov-17 05:30N 27°57' W 082°27'0 0.0
2017-Nov-17 05:00N 27°57' W 082°27'0 0.0
2017-Nov-17 04:30N 27°57' W 082°27'0 0.0
2017-Nov-17 04:00N 27°57' W 082°27'0 0.0
2017-Nov-17 03:30N 27°57' W 082°27'0 0.0
2017-Nov-17 03:00N 27°57' W 082°27'0 0.0
2017-Nov-17 02:30N 27°57' W 082°27'0 0.0
2017-Nov-17 02:00N 27°57' W 082°27'0 0.0
2017-Nov-17 01:30N 27°57' W 082°27'0 0.0
2017-Nov-17 01:00N 27°57' W 082°27'0 0.0
2017-Nov-17 00:30N 27°57' W 082°27'0 0.0
2017-Nov-17 00:00N 27°57' W 082°27'0 0.0
2017-Nov-16 23:30N 27°57' W 082°27'0 0.0
2017-Nov-16 23:00N 27°57' W 082°27'0 0.0
2017-Nov-16 22:30N 27°57' W 082°27'0 0.0
2017-Nov-16 22:00N 27°57' W 082°27'0 0.0
2017-Nov-16 21:30N 27°57' W 082°27'0 0.0
2017-Nov-16 21:00N 27°57' W 082°27'0 0.0
2017-Nov-16 20:30N 27°57' W 082°27'0 0.0
2017-Nov-16 20:00N 27°57' W 082°27'0 0.0
2017-Nov-16 19:30N 27°57' W 082°27'0 0.0
2017-Nov-16 19:00N 27°57' W 082°27'0 0.0
2017-Nov-16 18:30N 27°57' W 082°27'0 0.0
2017-Nov-16 18:01N 27°57' W 082°27'0 0.0
2017-Nov-16 17:31N 27°57' W 082°27'0 0.0
2017-Nov-16 17:01N 27°57' W 082°27'0 0.0
2017-Nov-16 16:31N 27°57' W 082°27'0 0.0
2017-Nov-16 16:01N 27°57' W 082°27'0 0.0
2017-Nov-16 15:31N 27°57' W 082°27'0 0.0
2017-Nov-16 15:00N 27°57' W 082°27'0 0.0
2017-Nov-16 14:31N 27°57' W 082°27'0 0.0
2017-Nov-16 14:00N 27°57' W 082°27'0 0.0
2017-Nov-16 13:30N 27°57' W 082°27'0 0.0
2017-Nov-16 13:00N 27°57' W 082°27'0 0.0
2017-Nov-16 12:31N 27°57' W 082°27'0 0.0
2017-Nov-16 12:01N 27°57' W 082°27'0 0.0
2017-Nov-16 11:30N 27°57' W 082°27'0 0.0
2017-Nov-16 11:00N 27°57' W 082°27'0 0.0
2017-Nov-16 10:31N 27°57' W 082°27'0 0.0
2017-Nov-16 10:01N 27°57' W 082°27'0 0.0
2017-Nov-16 09:31N 27°57' W 082°27'0 0.0
2017-Nov-16 09:00N 27°57' W 082°27'0 0.0
2017-Nov-16 08:31N 27°57' W 082°27'0 0.0
2017-Nov-16 08:00N 27°57' W 082°27'0 0.0
2017-Nov-16 07:31N 27°57' W 082°27'0 0.0
2017-Nov-16 07:01N 27°57' W 082°27'0 0.0
2017-Nov-16 06:31N 27°57' W 082°27'0 0.0
2017-Nov-16 06:01N 27°57' W 082°27'0 0.0
2017-Nov-16 05:31N 27°57' W 082°27'0 0.0
2017-Nov-16 05:01N 27°57' W 082°27'0 0.0
2017-Nov-16 04:31N 27°57' W 082°27'0 0.0
2017-Nov-16 04:01N 27°57' W 082°27'0 0.0
2017-Nov-16 03:31N 27°57' W 082°27'0 0.0
2017-Nov-16 03:01N 27°57' W 082°27'0 0.0
2017-Nov-16 02:31N 27°57' W 082°27'0 0.0
2017-Nov-16 02:01N 27°57' W 082°27'0 0.0
2017-Nov-16 01:31N 27°57' W 082°27'0 0.0
2017-Nov-16 01:00N 27°57' W 082°27'0 0.0
2017-Nov-16 00:31N 27°57' W 082°27'0 0.0
2017-Nov-16 00:01N 27°57' W 082°27'0 0.0
2017-Nov-15 23:31N 27°57' W 082°27'0 0.0
2017-Nov-15 23:00N 27°57' W 082°27'0 0.0
2017-Nov-15 22:31N 27°57' W 082°27'0 0.0
2017-Nov-15 22:01N 27°57' W 082°27'0 0.0
2017-Nov-15 21:30N 27°57' W 082°27'0 0.0
2017-Nov-15 21:01N 27°57' W 082°27'0 0.0
2017-Nov-15 20:31N 27°57' W 082°27'0 0.0
2017-Nov-15 20:01N 27°57' W 082°27'0 0.0
2017-Nov-15 19:31N 27°57' W 082°27'0 0.0
2017-Nov-15 19:01N 27°57' W 082°27'0 0.0
2017-Nov-15 18:30N 27°57' W 082°27'0 0.0
2017-Nov-15 18:01N 27°57' W 082°27'0 0.0
2017-Nov-15 17:31N 27°57' W 082°27'0 0.0
2017-Nov-15 17:01N 27°57' W 082°27'0 0.0
2017-Nov-15 16:31N 27°57' W 082°27'0 0.0
2017-Nov-15 16:01N 27°57' W 082°27'0 0.0
2017-Nov-15 15:31N 27°57' W 082°27'0 0.0
2017-Nov-15 15:00N 27°57' W 082°27'0 0.0
2017-Nov-15 14:31N 27°57' W 082°27'0 0.0
2017-Nov-15 14:01N 27°57' W 082°27'0 0.0
2017-Nov-15 13:31N 27°57' W 082°27'0 0.0
2017-Nov-15 13:01N 27°57' W 082°27'0 0.0
2017-Nov-15 12:31N 27°57' W 082°27'0 0.0
2017-Nov-15 12:01N 27°57' W 082°27'0 0.0
2017-Nov-15 11:31N 27°57' W 082°27'0 0.0
2017-Nov-15 11:01N 27°57' W 082°27'0 0.0
2017-Nov-15 10:30N 27°57' W 082°27'0 0.0
2017-Nov-15 10:00N 27°57' W 082°27'0 0.0
2017-Nov-15 09:31N 27°57' W 082°27'0 0.0
2017-Nov-15 09:01N 27°57' W 082°27'0 0.0
2017-Nov-15 08:31N 27°57' W 082°27'0 0.0
2017-Nov-15 08:01N 27°57' W 082°27'0 0.0
2017-Nov-15 07:30N 27°57' W 082°27'0 0.0
2017-Nov-15 07:01N 27°57' W 082°27'0 0.0
2017-Nov-15 06:31N 27°57' W 082°27'0 0.0
2017-Nov-15 06:01N 27°57' W 082°27'0 0.0
2017-Nov-15 05:31N 27°57' W 082°27'0 0.0
2017-Nov-15 05:01N 27°57' W 082°27'0 0.0
2017-Nov-15 04:31N 27°57' W 082°27'0 0.0
2017-Nov-15 04:01N 27°57' W 082°27'0 0.0
2017-Nov-15 03:30N 27°57' W 082°27'0 0.0
2017-Nov-15 03:00N 27°57' W 082°27'0 0.0
2017-Nov-15 02:31N 27°57' W 082°27'0 0.0
2017-Nov-15 02:01N 27°57' W 082°27'0 0.0
2017-Nov-15 01:31N 27°57' W 082°27'0 0.0
2017-Nov-15 01:01N 27°57' W 082°27'0 0.0
2017-Nov-15 00:31N 27°57' W 082°27'0 0.0
2017-Nov-15 00:01N 27°57' W 082°27'0 0.0
2017-Nov-14 23:31N 27°57' W 082°27'0 0.0
2017-Nov-14 23:01N 27°57' W 082°27'0 0.0
2017-Nov-14 22:30N 27°57' W 082°27'0 0.0
2017-Nov-14 22:01N 27°57' W 082°27'0 0.0
2017-Nov-14 21:31N 27°57' W 082°27'0 0.0
2017-Nov-14 21:01N 27°57' W 082°27'  
Track history (hours):
 
Tides and Currents Weather Stations Pressure Air Temp Water Temp Dewpoint Dewpoint Depression Visibility Wind Speed Wind Dir Waves Ship Positions

Tug Danielle Bouchard

Owner: Danielle M. Bouchard, MELVILLE, NY. More information available from US FCC via Universal Licensing System.

Last reported at 2017-Nov-24 20:41 UTC. Time now 2017-Nov-25 00:25 UTC.
Position N 27°41' W 082°35'.

Length 209 m; draft 7.1 m.

Type: Tanker. MMSI: 367006650.

Date/timePositionNaut miles runAvg speedWind from/ knotsBaromVisibWave heightAir tempDewpointWater temp
2017-Nov-24 20:41N 27°41' W 082°35'2 9.1
2017-Nov-24 20:30N 27°42' W 082°33'5 9.3
2017-Nov-24 20:00N 27°46' W 082°31'5 9.3
2017-Nov-24 19:30N 27°49' W 082°27'5 9.7
2017-Nov-24 19:00N 27°54' W 082°26'3 5.1
2017-Nov-24 18:30N 27°56' W 082°27'0 0.6
2017-Nov-24 18:01N 27°56' W 082°27'0 0.0
2017-Nov-24 17:29N 27°56' W 082°27'0 0.0
2017-Nov-24 16:59N 27°56' W 082°27'0 0.0
2017-Nov-24 16:29N 27°56' W 082°27'0 0.0
2017-Nov-24 15:59N 27°56' W 082°27'0 0.0
2017-Nov-24 15:28N 27°56' W 082°27'0 0.0
2017-Nov-24 14:58N 27°56' W 082°27'0 0.0
2017-Nov-24 14:28N 27°56' W 082°27'0 0.0
2017-Nov-24 13:58N 27°56' W 082°27'0 0.0
2017-Nov-24 13:31N 27°56' W 082°27'0 0.0
2017-Nov-24 13:01N 27°56' W 082°27'0 0.0
2017-Nov-24 12:30N 27°56' W 082°27'0 0.0
2017-Nov-24 12:00N 27°56' W 082°27'0 0.0
2017-Nov-24 11:27N 27°56' W 082°27'0 0.0
2017-Nov-24 11:00N 27°56' W 082°27'0 0.0
2017-Nov-24 10:30N 27°56' W 082°27'0 0.0
2017-Nov-24 10:00N 27°56' W 082°27'0 0.0
2017-Nov-24 09:27N 27°56' W 082°27'0 0.0
2017-Nov-24 09:00N 27°56' W 082°27'0 0.0
2017-Nov-24 08:30N 27°56' W 082°27'0 0.0
2017-Nov-24 08:00N 27°56' W 082°27'0 0.0
2017-Nov-24 07:30N 27°56' W 082°27'0 0.0
2017-Nov-24 07:00N 27°56' W 082°27'0 0.0
2017-Nov-24 06:30N 27°56' W 082°27'0 0.0
2017-Nov-24 06:00N 27°56' W 082°27'0 0.0
2017-Nov-24 05:30N 27°56' W 082°27'0 0.0
2017-Nov-24 04:57N 27°56' W 082°27'0 0.0
2017-Nov-24 04:30N 27°56' W 082°27'0 0.0
2017-Nov-24 04:00N 27°56' W 082°27'0 0.0
2017-Nov-24 03:30N 27°56' W 082°27'0 0.0
2017-Nov-24 03:00N 27°56' W 082°27'0 0.0
2017-Nov-24 02:30N 27°56' W 082°27'0 0.0
2017-Nov-24 02:00N 27°56' W 082°27'0 0.0
2017-Nov-24 01:30N 27°56' W 082°27'0 0.0
2017-Nov-24 01:00N 27°56' W 082°27'0 0.0
2017-Nov-24 00:30N 27°56' W 082°27'0 0.0
2017-Nov-24 00:00N 27°56' W 082°27'0 0.0
2017-Nov-23 23:30N 27°56' W 082°27'0 0.0
2017-Nov-23 23:00N 27°56' W 082°27'0 0.0
2017-Nov-23 22:30N 27°56' W 082°27'0 0.0
2017-Nov-23 22:00N 27°56' W 082°27'0 0.0
2017-Nov-23 21:30N 27°56' W 082°27'0 0.0
2017-Nov-23 21:00N 27°56' W 082°27'0 0.0
2017-Nov-23 20:30N 27°56' W 082°27'0 0.0
2017-Nov-23 20:00N 27°56' W 082°27'1 1.3
2017-Nov-23 19:30N 27°56' W 082°27'2 4.3
2017-Nov-23 18:58N 27°54' W 082°25'0 0.0
2017-Nov-23 18:28N 27°54' W 082°25'0 0.0
2017-Nov-23 17:58N 27°54' W 082°25'0 0.0
2017-Nov-23 17:28N 27°54' W 082°25'0 0.0
2017-Nov-23 16:58N 27°54' W 082°25'0 0.0
2017-Nov-23 16:28N 27°54' W 082°25'0 0.0
2017-Nov-23 15:58N 27°54' W 082°25'0 0.0
2017-Nov-23 15:28N 27°54' W 082°25'0 0.0
2017-Nov-23 14:58N 27°54' W 082°25'0 0.0
2017-Nov-23 14:25N 27°54' W 082°25'0 0.0
2017-Nov-23 13:58N 27°54' W 082°25'0 0.0
2017-Nov-23 13:30N 27°54' W 082°25'0 0.0
2017-Nov-23 13:00N 27°54' W 082°25'0 0.0
2017-Nov-23 12:30N 27°54' W 082°25'1 2.4
2017-Nov-23 12:00N 27°54' W 082°26'2 3.9
2017-Nov-23 11:28N 27°56' W 082°27'0 0.0
2017-Nov-23 10:58N 27°56' W 082°27'0 0.0
2017-Nov-23 10:28N 27°56' W 082°27'0 0.0
2017-Nov-23 09:58N 27°56' W 082°27'0 0.0
2017-Nov-23 09:28N 27°56' W 082°27'0 0.0
2017-Nov-23 08:58N 27°56' W 082°27'0 0.0
2017-Nov-23 08:28N 27°56' W 082°27'0 0.0
2017-Nov-23 07:58N 27°56' W 082°27'0 0.0
2017-Nov-23 07:28N 27°56' W 082°27'0 0.0
2017-Nov-23 06:58N 27°56' W 082°27'0 0.0
2017-Nov-23 06:28N 27°56' W 082°27'0 0.0
2017-Nov-23 05:58N 27°56' W 082°27'0 0.0
2017-Nov-23 05:28N 27°56' W 082°27'0 0.0
2017-Nov-23 04:58N 27°56' W 082°27'0 0.0
2017-Nov-23 04:28N 27°56' W 082°27'0 0.0
2017-Nov-23 03:58N 27°56' W 082°27'0 0.0
2017-Nov-23 03:28N 27°56' W 082°27'0 0.0
2017-Nov-23 02:58N 27°56' W 082°27'0 0.0
2017-Nov-23 02:28N 27°56' W 082°27'0 0.0
2017-Nov-23 01:58N 27°56' W 082°27'0 0.0
2017-Nov-23 01:28N 27°56' W 082°27'0 0.0
2017-Nov-23 00:58N 27°56' W 082°27'0 0.0
2017-Nov-23 00:28N 27°56' W 082°27'0 0.0
2017-Nov-22 23:58N 27°56' W 082°27'0 0.0
2017-Nov-22 23:28N 27°56' W 082°27'0 0.0
2017-Nov-22 22:58N 27°56' W 082°27'0 0.0
2017-Nov-22 22:28N 27°56' W 082°27'0 0.0
2017-Nov-22 21:58N 27°56' W 082°27'0 0.0
2017-Nov-22 21:25N 27°56' W 082°27'0 0.0
2017-Nov-22 20:58N 27°56' W 082°27'0 0.0
2017-Nov-22 20:28N 27°56' W 082°27'0 0.0
2017-Nov-22 19:58N 27°56' W 082°27'0 0.0
2017-Nov-22 19:19N 27°56' W 082°27'  
2017-Nov-20 00:29N 27°57' W 082°27'0 0.0
2017-Nov-19 23:59N 27°57' W 082°27'0 0.0
2017-Nov-19 23:29N 27°57' W 082°27'0 0.0
2017-Nov-19 22:59N 27°57' W 082°27'0 0.0
2017-Nov-19 22:29N 27°57' W 082°27'0 0.0
2017-Nov-19 21:59N 27°57' W 082°27'0 0.0
2017-Nov-19 21:29N 27°57' W 082°27'0 0.0
2017-Nov-19 20:59N 27°57' W 082°27'0 0.0
2017-Nov-19 20:29N 27°57' W 082°27'0 0.0
2017-Nov-19 19:59N 27°57' W 082°27'0 0.0
2017-Nov-19 19:29N 27°57' W 082°27'0 0.0
2017-Nov-19 18:59N 27°57' W 082°27'0 0.0
2017-Nov-19 18:29N 27°57' W 082°27'0 0.0
2017-Nov-19 17:59N 27°57' W 082°27'0 0.0
2017-Nov-19 17:29N 27°57' W 082°27'0 0.0
2017-Nov-19 16:59N 27°57' W 082°27'0 0.0
2017-Nov-19 16:29N 27°57' W 082°27'0 0.0
2017-Nov-19 15:59N 27°57' W 082°27'0 0.0
2017-Nov-19 15:29N 27°57' W 082°27'0 0.0
2017-Nov-19 14:59N 27°57' W 082°27'0 0.0
2017-Nov-19 14:29N 27°57' W 082°27'0 0.0
2017-Nov-19 13:59N 27°57' W 082°27'0 0.0
2017-Nov-19 13:29N 27°57' W 082°27'0 0.0
2017-Nov-19 12:59N 27°57' W 082°27'0 0.0
2017-Nov-19 12:29N 27°57' W 082°27'0 0.0
2017-Nov-19 11:59N 27°57' W 082°27'0 0.0
2017-Nov-19 11:29N 27°57' W 082°27'0 0.0
2017-Nov-19 10:59N 27°57' W 082°27'0 0.0
2017-Nov-19 10:29N 27°57' W 082°27'0 0.0
2017-Nov-19 09:59N 27°57' W 082°27'0 0.0
2017-Nov-19 09:29N 27°57' W 082°27'0 0.0
2017-Nov-19 08:59N 27°57' W 082°27'0 0.0
2017-Nov-19 08:29N 27°57' W 082°27'0 0.0
2017-Nov-19 07:58N 27°57' W 082°27'0 0.0
2017-Nov-19 07:28N 27°57' W 082°27'0 0.0
2017-Nov-19 06:58N 27°57' W 082°27'0 0.0
2017-Nov-19 06:28N 27°57' W 082°27'0 0.0
2017-Nov-19 05:58N 27°57' W 082°27'0 0.0
2017-Nov-19 05:28N 27°57' W 082°27'0 0.0
2017-Nov-19 04:58N 27°57' W 082°27'0 0.0
2017-Nov-19 04:28N 27°57' W 082°27'0 0.0
2017-Nov-19 03:58N 27°57' W 082°27'0 0.0
2017-Nov-19 03:28N 27°57' W 082°27'0 0.0
2017-Nov-19 02:58N 27°57' W 082°27'0 0.0
2017-Nov-19 02:28N 27°57' W 082°27'0 0.0
2017-Nov-19 01:55N 27°57' W 082°27'0 0.0
2017-Nov-19 01:28N 27°57' W 082°27'0 0.0
2017-Nov-19 00:58N 27°57' W 082°27'0 0.0
2017-Nov-19 00:28N 27°57' W 082°27'0 0.0
2017-Nov-18 23:58N 27°57' W 082°27'0 0.0
2017-Nov-18 23:28N 27°57' W 082°27'0 0.0
2017-Nov-18 22:58N 27°57' W 082°27'0 0.0
2017-Nov-18 22:28N 27°57' W 082°27'0 0.0
2017-Nov-18 21:58N 27°57' W 082°27'0 0.0
2017-Nov-18 21:28N 27°57' W 082°27'0 0.0
2017-Nov-18 20:58N 27°57' W 082°27'0 0.0
2017-Nov-18 20:28N 27°57' W 082°27'0 0.0
2017-Nov-18 19:58N 27°57' W 082°27'0 0.0
2017-Nov-18 19:28N 27°57' W 082°27'0 0.0
2017-Nov-18 18:58N 27°57' W 082°27'0 0.0
2017-Nov-18 18:28N 27°57' W 082°27'0 0.0
2017-Nov-18 17:58N 27°57' W 082°27'0 0.0
2017-Nov-18 17:28N 27°57' W 082°27'0 0.0
2017-Nov-18 16:58N 27°57' W 082°27'0 0.0
2017-Nov-18 16:28N 27°57' W 082°27'0 0.0
2017-Nov-18 15:58N 27°57' W 082°27'0 0.0
2017-Nov-18 15:28N 27°57' W 082°27'0 0.0
2017-Nov-18 14:58N 27°57' W 082°27'0 0.0
2017-Nov-18 14:28N 27°57' W 082°27'0 0.0
2017-Nov-18 13:58N 27°57' W 082°27'0 0.0
2017-Nov-18 13:28N 27°57' W 082°27'0 0.0
2017-Nov-18 12:58N 27°57' W 082°27'0 0.0
2017-Nov-18 12:28N 27°57' W 082°27'0 0.0
2017-Nov-18 11:58N 27°57' W 082°27'0 0.0
2017-Nov-18 11:28N 27°57' W 082°27'0 0.0
2017-Nov-18 10:58N 27°57' W 082°27'0 0.0
2017-Nov-18 10:28N 27°57' W 082°27'0 0.0
2017-Nov-18 09:58N 27°57' W 082°27'0 0.0
2017-Nov-18 09:25N 27°57' W 082°27'0 0.0
2017-Nov-18 08:58N 27°57' W 082°27'0 0.0
2017-Nov-18 08:28N 27°57' W 082°27'0 0.0
2017-Nov-18 07:58N 27°57' W 082°27'0 0.0
2017-Nov-18 07:28N 27°57' W 082°27'0 0.0
2017-Nov-18 06:58N 27°57' W 082°27'0 0.0
2017-Nov-18 06:28N 27°57' W 082°27'0 0.0
2017-Nov-18 05:58N 27°57' W 082°27'0 0.0
2017-Nov-18 05:28N 27°57' W 082°27'0 0.0
2017-Nov-18 04:58N 27°57' W 082°27'0 0.0
2017-Nov-18 04:28N 27°57' W 082°27'0 0.0
2017-Nov-18 03:58N 27°57' W 082°27'0 0.0
2017-Nov-18 03:28N 27°57' W 082°27'0 0.0
2017-Nov-18 02:58N 27°57' W 082°27'0 0.0
2017-Nov-18 02:28N 27°57' W 082°27'0 0.0
2017-Nov-18 01:58N 27°57' W 082°27'0 0.0
2017-Nov-18 01:28N 27°57' W 082°27'0 0.0
2017-Nov-18 00:58N 27°57' W 082°27'0 0.0
2017-Nov-18 00:28N 27°57' W 082°27'0 0.0
2017-Nov-17 23:58N 27°57' W 082°27'0 0.0
2017-Nov-17 23:28N 27°57' W 082°27'0 0.0
2017-Nov-17 22:58N 27°57' W 082°27'0 0.0
2017-Nov-17 22:28N 27°57' W 082°27'0 0.0
2017-Nov-17 22:01N 27°57' W 082°27'0 0.0
2017-Nov-17 21:31N 27°57' W 082°27'0 0.0
2017-Nov-17 21:00N 27°57' W 082°27'0 0.0
2017-Nov-17 20:30N 27°57' W 082°27'0 0.0
2017-Nov-17 20:00N 27°57' W 082°27'0 0.0
2017-Nov-17 19:30N 27°57' W 082°27'0 0.0
2017-Nov-17 19:00N 27°57' W 082°27'0 0.0
2017-Nov-17 18:30N 27°57' W 082°27'0 0.0
2017-Nov-17 18:00N 27°57' W 082°27'0 0.0
2017-Nov-17 17:29N 27°57' W 082°27'0 0.0
2017-Nov-17 16:59N 27°57' W 082°27'0 0.0
2017-Nov-17 16:30N 27°57' W 082°27'2 4.2
2017-Nov-17 16:01N 27°55' W 082°26'1 1.0
2017-Nov-17 15:30N 27°54' W 082°26'2 3.4
2017-Nov-17 15:00N 27°56' W 082°27'1 2.0
2017-Nov-17 14:30N 27°57' W 082°27'0 0.0
2017-Nov-17 14:00N 27°57' W 082°27'0 0.0
2017-Nov-17 13:30N 27°57' W 082°27'0 0.0
2017-Nov-17 13:00N 27°57' W 082°27'0 0.0
2017-Nov-17 12:30N 27°57' W 082°27'0 0.0
2017-Nov-17 12:00N 27°57' W 082°27'0 0.0
2017-Nov-17 11:30N 27°57' W 082°27'0 0.0
2017-Nov-17 11:00N 27°57' W 082°27'0 0.0
2017-Nov-17 10:30N 27°57' W 082°27'0 0.0
2017-Nov-17 10:00N 27°57' W 082°27'0 0.0
2017-Nov-17 09:30N 27°57' W 082°27'0 0.0
2017-Nov-17 09:00N 27°57' W 082°27'0 0.0
2017-Nov-17 08:30N 27°57' W 082°27'0 0.0
2017-Nov-17 08:00N 27°57' W 082°27'0 0.0
2017-Nov-17 07:30N 27°57' W 082°27'0 0.0
2017-Nov-17 07:00N 27°57' W 082°27'0 0.0
2017-Nov-17 06:30N 27°57' W 082°27'0 0.0
2017-Nov-17 06:00N 27°57' W 082°27'0 0.0
2017-Nov-17 05:30N 27°57' W 082°27'0 0.0
2017-Nov-17 05:00N 27°57' W 082°27'0 0.0
2017-Nov-17 04:30N 27°57' W 082°27'0 0.0
2017-Nov-17 04:00N 27°57' W 082°27'0 0.0
2017-Nov-17 03:30N 27°57' W 082°27'0 0.0
2017-Nov-17 03:00N 27°57' W 082°27'0 0.0
2017-Nov-17 02:30N 27°57' W 082°27'0 0.0
2017-Nov-17 02:00N 27°57' W 082°27'0 0.0
2017-Nov-17 01:30N 27°57' W 082°27'0 0.0
2017-Nov-17 01:00N 27°57' W 082°27'0 0.0
2017-Nov-17 00:30N 27°57' W 082°27'0 0.0
2017-Nov-17 00:00N 27°57' W 082°27'0 0.0
2017-Nov-16 23:30N 27°57' W 082°27'0 0.0
2017-Nov-16 23:00N 27°57' W 082°27'0 0.0
2017-Nov-16 22:30N 27°57' W 082°27'0 0.0
2017-Nov-16 22:00N 27°57' W 082°27'0 0.0
2017-Nov-16 21:30N 27°57' W 082°27'0 0.0
2017-Nov-16 21:00N 27°57' W 082°27'0 0.0
2017-Nov-16 20:30N 27°57' W 082°27'0 0.0
2017-Nov-16 20:00N 27°57' W 082°27'0 0.0
2017-Nov-16 19:30N 27°57' W 082°27'0 0.0
2017-Nov-16 19:00N 27°57' W 082°27'0 0.0
2017-Nov-16 18:30N 27°57' W 082°27'0 0.0
2017-Nov-16 18:01N 27°57' W 082°27'0 0.0
2017-Nov-16 17:31N 27°57' W 082°27'0 0.0
2017-Nov-16 17:01N 27°57' W 082°27'0 0.0
2017-Nov-16 16:31N 27°57' W 082°27'0 0.0
2017-Nov-16 16:01N 27°57' W 082°27'0 0.0
2017-Nov-16 15:31N 27°57' W 082°27'0 0.0
2017-Nov-16 15:00N 27°57' W 082°27'0 0.0
2017-Nov-16 14:31N 27°57' W 082°27'0 0.0
2017-Nov-16 14:00N 27°57' W 082°27'0 0.0
2017-Nov-16 13:30N 27°57' W 082°27'0 0.0
2017-Nov-16 13:00N 27°57' W 082°27'0 0.0
2017-Nov-16 12:31N 27°57' W 082°27'0 0.0
2017-Nov-16 12:01N 27°57' W 082°27'0 0.0
2017-Nov-16 11:30N 27°57' W 082°27'0 0.0
2017-Nov-16 11:00N 27°57' W 082°27'0 0.0
2017-Nov-16 10:31N 27°57' W 082°27'0 0.0
2017-Nov-16 10:01N 27°57' W 082°27'0 0.0
2017-Nov-16 09:31N 27°57' W 082°27'0 0.0
2017-Nov-16 09:00N 27°57' W 082°27'0 0.0
2017-Nov-16 08:31N 27°57' W 082°27'0 0.0
2017-Nov-16 08:00N 27°57' W 082°27'0 0.0
2017-Nov-16 07:31N 27°57' W 082°27'0 0.0
2017-Nov-16 07:01N 27°57' W 082°27'0 0.0
2017-Nov-16 06:31N 27°57' W 082°27'0 0.0
2017-Nov-16 06:01N 27°57' W 082°27'0 0.0
2017-Nov-16 05:31N 27°57' W 082°27'0 0.0
2017-Nov-16 05:01N 27°57' W 082°27'0 0.0
2017-Nov-16 04:31N 27°57' W 082°27'0 0.0
2017-Nov-16 04:01N 27°57' W 082°27'0 0.0
2017-Nov-16 03:31N 27°57' W 082°27'0 0.0
2017-Nov-16 03:01N 27°57' W 082°27'0 0.0
2017-Nov-16 02:31N 27°57' W 082°27'0 0.0
2017-Nov-16 02:01N 27°57' W 082°27'0 0.0
2017-Nov-16 01:31N 27°57' W 082°27'0 0.0
2017-Nov-16 01:00N 27°57' W 082°27'0 0.0
2017-Nov-16 00:31N 27°57' W 082°27'0 0.0
2017-Nov-16 00:01N 27°57' W 082°27'0 0.0
2017-Nov-15 23:31N 27°57' W 082°27'0 0.0
2017-Nov-15 23:00N 27°57' W 082°27'0 0.0
2017-Nov-15 22:31N 27°57' W 082°27'0 0.0
2017-Nov-15 22:01N 27°57' W 082°27'0 0.0
2017-Nov-15 21:30N 27°57' W 082°27'0 0.0
2017-Nov-15 21:01N 27°57' W 082°27'0 0.0
2017-Nov-15 20:31N 27°57' W 082°27'0 0.0
2017-Nov-15 20:01N 27°57' W 082°27'0 0.0
2017-Nov-15 19:31N 27°57' W 082°27'0 0.0
2017-Nov-15 19:01N 27°57' W 082°27'0 0.0
2017-Nov-15 18:30N 27°57' W 082°27'0 0.0
2017-Nov-15 18:01N 27°57' W 082°27'0 0.0
2017-Nov-15 17:31N 27°57' W 082°27'0 0.0
2017-Nov-15 17:01N 27°57' W 082°27'0 0.0
2017-Nov-15 16:31N 27°57' W 082°27'0 0.0
2017-Nov-15 16:01N 27°57' W 082°27'0 0.0
2017-Nov-15 15:31N 27°57' W 082°27'0 0.0
2017-Nov-15 15:00N 27°57' W 082°27'0 0.0
2017-Nov-15 14:31N 27°57' W 082°27'0 0.0
2017-Nov-15 14:01N 27°57' W 082°27'0 0.0
2017-Nov-15 13:31N 27°57' W 082°27'0 0.0
2017-Nov-15 13:01N 27°57' W 082°27'0 0.0
2017-Nov-15 12:31N 27°57' W 082°27'0 0.0
2017-Nov-15 12:01N 27°57' W 082°27'0 0.0
2017-Nov-15 11:31N 27°57' W 082°27'0 0.0
2017-Nov-15 11:01N 27°57' W 082°27'0 0.0
2017-Nov-15 10:30N 27°57' W 082°27'0 0.0
2017-Nov-15 10:00N 27°57' W 082°27'0 0.0
2017-Nov-15 09:31N 27°57' W 082°27'0 0.0
2017-Nov-15 09:01N 27°57' W 082°27'0 0.0
2017-Nov-15 08:31N 27°57' W 082°27'0 0.0
2017-Nov-15 08:01N 27°57' W 082°27'0 0.0
2017-Nov-15 07:30N 27°57' W 082°27'0 0.0
2017-Nov-15 07:01N 27°57' W 082°27'0 0.0
2017-Nov-15 06:31N 27°57' W 082°27'0 0.0
2017-Nov-15 06:01N 27°57' W 082°27'0 0.0
2017-Nov-15 05:31N 27°57' W 082°27'0 0.0
2017-Nov-15 05:01N 27°57' W 082°27'0 0.0
2017-Nov-15 04:31N 27°57' W 082°27'0 0.0
2017-Nov-15 04:01N 27°57' W 082°27'0 0.0
2017-Nov-15 03:30N 27°57' W 082°27'0 0.0
2017-Nov-15 03:00N 27°57' W 082°27'0 0.0
2017-Nov-15 02:31N 27°57' W 082°27'0 0.0
2017-Nov-15 02:01N 27°57' W 082°27'0 0.0
2017-Nov-15 01:31N 27°57' W 082°27'0 0.0
2017-Nov-15 01:01N 27°57' W 082°27'0 0.0
2017-Nov-15 00:31N 27°57' W 082°27'0 0.0
2017-Nov-15 00:01N 27°57' W 082°27'0 0.0
2017-Nov-14 23:31N 27°57' W 082°27'0 0.0
2017-Nov-14 23:01N 27°57' W 082°27'0 0.0
2017-Nov-14 22:30N 27°57' W 082°27'0 0.0
2017-Nov-14 22:01N 27°57' W 082°27'0 0.0
2017-Nov-14 21:31N 27°57' W 082°27'0 0.0
2017-Nov-14 21:01N 27°57' W 082°27'  

Dump ship's entire track history